Terminal Aerodrome Forecast
Issued by NWS Cleveland, OH

Home | Current Version | Previous Version | Graphics & Text | Print | Product List | Glossary On
Versions: 1 2 3 4 5 6 7 8 9 10 11 12 13 14 15 16 17 18 19 20 21 22 23 24 25 26
000
FTUS41 KCLE 241700
TAFERI
TAF
KERI 241740Z 2418/2518 23008KT 5SM HZ OVC008
     FM242100 23008KT P6SM OVC012
     FM242300 25010KT 4SM -SHSN OVC015
     FM250300 24010KT P6SM VCSH OVC012
     FM251200 03008KT P6SM OVC012=

USA.gov is the U.S. government's official web portal to all federal, state and local government web resources and services.